sensor_id;sensor_type;location;lat;lon;timestamp;temperature;humidity
24678;DHT22;12800;53.094;8.778;2023-01-16T00:00:48;7.70;83.50
24678;DHT22;12800;53.094;8.778;2023-01-16T00:03:13;7.70;83.40
24678;DHT22;12800;53.094;8.778;2023-01-16T00:05:39;7.70;83.50
24678;DHT22;12800;53.094;8.778;2023-01-16T00:08:04;7.70;83.60
24678;DHT22;12800;53.094;8.778;2023-01-16T00:10:30;7.70;83.40
24678;DHT22;12800;53.094;8.778;2023-01-16T00:12:55;7.70;83.20
24678;DHT22;12800;53.094;8.778;2023-01-16T00:15:21;7.70;83.50
24678;DHT22;12800;53.094;8.778;2023-01-16T00:17:46;7.70;83.50
24678;DHT22;12800;53.094;8.778;2023-01-16T00:20:13;7.70;83.30
24678;DHT22;12800;53.094;8.778;2023-01-16T00:22:39;7.70;83.40
24678;DHT22;12800;53.094;8.778;2023-01-16T00:25:05;7.70;83.40
24678;DHT22;12800;53.094;8.778;2023-01-16T00:27:31;7.80;83.60
24678;DHT22;12800;53.094;8.778;2023-01-16T00:29:56;7.80;83.50
24678;DHT22;12800;53.094;8.778;2023-01-16T00:32:22;7.80;83.50
24678;DHT22;12800;53.094;8.778;2023-01-16T00:34:47;7.80;83.30
24678;DHT22;12800;53.094;8.778;2023-01-16T00:37:13;7.80;83.20
24678;DHT22;12800;53.094;8.778;2023-01-16T00:39:39;7.70;83.30
24678;DHT22;12800;53.094;8.778;2023-01-16T00:42:05;7.70;83.20
24678;DHT22;12800;53.094;8.778;2023-01-16T00:44:31;7.70;83.30
24678;DHT22;12800;53.094;8.778;2023-01-16T00:46:57;7.70;83.40
24678;DHT22;12800;53.094;8.778;2023-01-16T00:49:22;7.80;84.20
24678;DHT22;12800;53.094;8.778;2023-01-16T00:51:48;7.70;83.30
24678;DHT22;12800;53.094;8.778;2023-01-16T00:54:13;7.70;83.20
24678;DHT22;12800;53.094;8.778;2023-01-16T00:56:39;7.70;83.30
24678;DHT22;12800;53.094;8.778;2023-01-16T00:59:05;7.70;84.10
24678;DHT22;12800;53.094;8.778;2023-01-16T01:01:30;7.70;83.20
24678;DHT22;12800;53.094;8.778;2023-01-16T01:03:58;7.70;83.30
24678;DHT22;12800;53.094;8.778;2023-01-16T01:06:24;7.70;83.30
24678;DHT22;12800;53.094;8.778;2023-01-16T01:08:50;7.70;83.20
24678;DHT22;12800;53.094;8.778;2023-01-16T01:11:15;7.70;83.20
24678;DHT22;12800;53.094;8.778;2023-01-16T01:13:41;7.70;83.30
24678;DHT22;12800;53.094;8.778;2023-01-16T01:16:08;7.70;83.30
24678;DHT22;12800;53.094;8.778;2023-01-16T01:18:34;7.70;83.30
24678;DHT22;12800;53.094;8.778;2023-01-16T01:21:00;7.70;83.30
24678;DHT22;12800;53.094;8.778;2023-01-16T01:23:26;7.70;83.40
24678;DHT22;12800;53.094;8.778;2023-01-16T01:25:51;7.70;83.40
24678;DHT22;12800;53.094;8.778;2023-01-16T01:28:18;7.70;83.40
24678;DHT22;12800;53.094;8.778;2023-01-16T01:30:43;7.70;83.40
24678;DHT22;12800;53.094;8.778;2023-01-16T01:33:09;7.70;83.40
24678;DHT22;12800;53.094;8.778;2023-01-16T01:35:35;7.70;83.30
24678;DHT22;12800;53.094;8.778;2023-01-16T01:38:01;7.70;83.30
24678;DHT22;12800;53.094;8.778;2023-01-16T01:40:27;7.70;83.30
24678;DHT22;12800;53.094;8.778;2023-01-16T01:42:52;7.70;83.20
24678;DHT22;12800;53.094;8.778;2023-01-16T01:45:21;7.70;83.30
24678;DHT22;12800;53.094;8.778;2023-01-16T01:53:13;7.70;83.30
24678;DHT22;12800;53.094;8.778;2023-01-16T01:55:42;7.70;83.20
24678;DHT22;12800;53.094;8.778;2023-01-16T01:58:09;7.70;83.20
24678;DHT22;12800;53.094;8.778;2023-01-16T02:00:35;7.70;83.20
24678;DHT22;12800;53.094;8.778;2023-01-16T02:03:10;7.70;83.10
24678;DHT22;12800;53.094;8.778;2023-01-16T02:05:45;7.70;83.00
24678;DHT22;12800;53.094;8.778;2023-01-16T02:08:18;7.70;83.20
24678;DHT22;12800;53.094;8.778;2023-01-16T02:10:59;7.70;83.10
24678;DHT22;12800;53.094;8.778;2023-01-16T02:13:27;7.70;83.10
24678;DHT22;12800;53.094;8.778;2023-01-16T02:15:55;7.70;83.00
24678;DHT22;12800;53.094;8.778;2023-01-16T02:18:39;7.70;83.00
24678;DHT22;12800;53.094;8.778;2023-01-16T02:24:38;7.70;83.00
24678;DHT22;12800;53.094;8.778;2023-01-16T02:29:52;7.70;83.00
24678;DHT22;12800;53.094;8.778;2023-01-16T02:38:42;7.70;83.00
24678;DHT22;12800;53.094;8.778;2023-01-16T02:49:41;7.70;82.80
24678;DHT22;12800;53.094;8.778;2023-01-16T02:55:27;7.70;82.60
24678;DHT22;12800;53.094;8.778;2023-01-16T02:58:01;7.70;82.50
24678;DHT22;12800;53.094;8.778;2023-01-16T03:00:28;7.70;82.40
24678;DHT22;12800;53.094;8.778;2023-01-16T03:02:54;7.70;82.50
24678;DHT22;12800;53.094;8.778;2023-01-16T03:05:21;7.70;82.60
24678;DHT22;12800;53.094;8.778;2023-01-16T03:08:00;7.70;82.60
24678;DHT22;12800;53.094;8.778;2023-01-16T03:10:56;7.70;82.60
24678;DHT22;12800;53.094;8.778;2023-01-16T03:16:01;7.70;82.30
24678;DHT22;12800;53.094;8.778;2023-01-16T03:21:33;7.70;82.20
24678;DHT22;12800;53.094;8.778;2023-01-16T03:26:43;7.70;82.20
24678;DHT22;12800;53.094;8.778;2023-01-16T03:29:33;7.70;82.10
24678;DHT22;12800;53.094;8.778;2023-01-16T03:32:08;7.60;82.00
24678;DHT22;12800;53.094;8.778;2023-01-16T03:34:41;7.60;81.90
24678;DHT22;12800;53.094;8.778;2023-01-16T03:37:16;7.60;82.00
24678;DHT22;12800;53.094;8.778;2023-01-16T03:39:46;7.60;82.00
24678;DHT22;12800;53.094;8.778;2023-01-16T03:42:24;7.50;81.90
24678;DHT22;12800;53.094;8.778;2023-01-16T03:44:57;7.50;82.00
24678;DHT22;12800;53.094;8.778;2023-01-16T03:47:31;7.40;81.90
24678;DHT22;12800;53.094;8.778;2023-01-16T03:50:03;7.40;82.10
24678;DHT22;12800;53.094;8.778;2023-01-16T03:52:36;7.40;82.10
24678;DHT22;12800;53.094;8.778;2023-01-16T03:55:13;7.40;81.90
24678;DHT22;12800;53.094;8.778;2023-01-16T03:58:06;7.30;82.10
24678;DHT22;12800;53.094;8.778;2023-01-16T04:01:03;7.30;82.00
24678;DHT22;12800;53.094;8.778;2023-01-16T04:04:25;7.30;82.00
24678;DHT22;12800;53.094;8.778;2023-01-16T04:06:53;7.30;82.10
24678;DHT22;12800;53.094;8.778;2023-01-16T04:09:29;7.20;82.10
24678;DHT22;12800;53.094;8.778;2023-01-16T04:11:55;7.20;82.10
24678;DHT22;12800;53.094;8.778;2023-01-16T04:14:23;7.20;82.40
24678;DHT22;12800;53.094;8.778;2023-01-16T04:16:50;7.20;82.40
24678;DHT22;12800;53.094;8.778;2023-01-16T04:19:18;7.20;82.40
24678;DHT22;12800;53.094;8.778;2023-01-16T04:21:46;7.10;82.30
24678;DHT22;12800;53.094;8.778;2023-01-16T04:24:13;7.10;82.40
24678;DHT22;12800;53.094;8.778;2023-01-16T04:26:39;7.10;82.40
24678;DHT22;12800;53.094;8.778;2023-01-16T04:29:04;7.10;82.50
24678;DHT22;12800;53.094;8.778;2023-01-16T04:31:30;7.10;82.50
24678;DHT22;12800;53.094;8.778;2023-01-16T04:33:55;7.10;82.80
24678;DHT22;12800;53.094;8.778;2023-01-16T04:36:21;7.10;83.00
24678;DHT22;12800;53.094;8.778;2023-01-16T04:38:47;7.10;83.20
24678;DHT22;12800;53.094;8.778;2023-01-16T04:41:12;7.10;83.40
24678;DHT22;12800;53.094;8.778;2023-01-16T04:43:58;7.10;83.30
24678;DHT22;12800;53.094;8.778;2023-01-16T04:46:24;7.10;83.40
24678;DHT22;12800;53.094;8.778;2023-01-16T04:48:49;7.10;83.50
24678;DHT22;12800;53.094;8.778;2023-01-16T04:51:15;7.10;83.50
24678;DHT22;12800;53.094;8.778;2023-01-16T04:53:40;7.10;83.60
24678;DHT22;12800;53.094;8.778;2023-01-16T04:56:06;7.10;83.70
24678;DHT22;12800;53.094;8.778;2023-01-16T04:58:31;7.10;83.70
24678;DHT22;12800;53.094;8.778;2023-01-16T05:00:57;7.10;83.80
24678;DHT22;12800;53.094;8.778;2023-01-16T05:03:22;7.10;83.60
24678;DHT22;12800;53.094;8.778;2023-01-16T05:05:48;7.10;83.60
24678;DHT22;12800;53.094;8.778;2023-01-16T05:08:14;7.20;83.80
24678;DHT22;12800;53.094;8.778;2023-01-16T05:10:42;7.20;83.80
24678;DHT22;12800;53.094;8.778;2023-01-16T05:13:08;7.20;83.70
24678;DHT22;12800;53.094;8.778;2023-01-16T05:15:33;7.20;83.60
24678;DHT22;12800;53.094;8.778;2023-01-16T05:17:59;7.20;83.70
24678;DHT22;12800;53.094;8.778;2023-01-16T05:20:25;7.20;83.70
24678;DHT22;12800;53.094;8.778;2023-01-16T05:22:50;7.20;83.80
24678;DHT22;12800;53.094;8.778;2023-01-16T05:25:16;7.20;83.60
24678;DHT22;12800;53.094;8.778;2023-01-16T05:27:41;7.20;83.60
24678;DHT22;12800;53.094;8.778;2023-01-16T05:30:07;7.30;83.80
24678;DHT22;12800;53.094;8.778;2023-01-16T05:32:33;7.30;83.80
24678;DHT22;12800;53.094;8.778;2023-01-16T05:34:59;7.30;83.80
24678;DHT22;12800;53.094;8.778;2023-01-16T05:37:27;7.30;83.70
24678;DHT22;12800;53.094;8.778;2023-01-16T05:39:53;7.30;83.70
24678;DHT22;12800;53.094;8.778;2023-01-16T05:42:23;7.40;83.70
24678;DHT22;12800;53.094;8.778;2023-01-16T05:44:51;7.40;83.70
24678;DHT22;12800;53.094;8.778;2023-01-16T05:47:18;7.40;83.70
24678;DHT22;12800;53.094;8.778;2023-01-16T05:49:44;7.40;83.60
24678;DHT22;12800;53.094;8.778;2023-01-16T05:52:09;7.40;83.50
24678;DHT22;12800;53.094;8.778;2023-01-16T05:54:35;7.40;83.50
24678;DHT22;12800;53.094;8.778;2023-01-16T05:57:01;7.40;83.40
24678;DHT22;12800;53.094;8.778;2023-01-16T05:59:26;7.40;83.40
24678;DHT22;12800;53.094;8.778;2023-01-16T06:01:52;7.30;83.30
24678;DHT22;12800;53.094;8.778;2023-01-16T06:04:17;7.30;83.60
24678;DHT22;12800;53.094;8.778;2023-01-16T06:06:45;7.30;83.60
24678;DHT22;12800;53.094;8.778;2023-01-16T06:09:11;7.30;83.60
24678;DHT22;12800;53.094;8.778;2023-01-16T06:11:36;7.30;83.70
24678;DHT22;12800;53.094;8.778;2023-01-16T06:14:02;7.30;83.90
24678;DHT22;12800;53.094;8.778;2023-01-16T06:16:30;7.30;84.10
24678;DHT22;12800;53.094;8.778;2023-01-16T06:18:56;7.30;84.20
24678;DHT22;12800;53.094;8.778;2023-01-16T06:21:21;7.30;84.40
24678;DHT22;12800;53.094;8.778;2023-01-16T06:23:47;7.30;84.50
24678;DHT22;12800;53.094;8.778;2023-01-16T06:26:13;7.20;84.70
24678;DHT22;12800;53.094;8.778;2023-01-16T06:28:38;7.20;84.70
24678;DHT22;12800;53.094;8.778;2023-01-16T06:31:05;7.20;84.90
24678;DHT22;12800;53.094;8.778;2023-01-16T06:33:31;7.20;85.00
24678;DHT22;12800;53.094;8.778;2023-01-16T06:35:56;7.20;85.00
24678;DHT22;12800;53.094;8.778;2023-01-16T06:38:23;7.20;85.00
24678;DHT22;12800;53.094;8.778;2023-01-16T06:40:48;7.20;85.00
24678;DHT22;12800;53.094;8.778;2023-01-16T06:43:14;7.20;84.90
24678;DHT22;12800;53.094;8.778;2023-01-16T06:45:42;7.20;85.60
24678;DHT22;12800;53.094;8.778;2023-01-16T06:48:09;7.10;84.70
24678;DHT22;12800;53.094;8.778;2023-01-16T06:50:35;7.10;84.70
24678;DHT22;12800;53.094;8.778;2023-01-16T06:53:00;7.00;84.60
24678;DHT22;12800;53.094;8.778;2023-01-16T06:55:27;7.00;84.50
24678;DHT22;12800;53.094;8.778;2023-01-16T06:57:52;7.00;84.50
24678;DHT22;12800;53.094;8.778;2023-01-16T07:00:18;6.90;85.30
24678;DHT22;12800;53.094;8.778;2023-01-16T07:02:50;7.00;84.50
24678;DHT22;12800;53.094;8.778;2023-01-16T07:05:16;6.90;84.40
24678;DHT22;12800;53.094;8.778;2023-01-16T07:07:41;6.90;84.30
24678;DHT22;12800;53.094;8.778;2023-01-16T07:10:08;6.90;85.00
24678;DHT22;12800;53.094;8.778;2023-01-16T07:12:33;6.90;84.20
24678;DHT22;12800;53.094;8.778;2023-01-16T07:14:59;7.00;84.10
24678;DHT22;12800;53.094;8.778;2023-01-16T07:17:43;7.00;83.90
24678;DHT22;12800;53.094;8.778;2023-01-16T07:20:27;6.90;83.70
24678;DHT22;12800;53.094;8.778;2023-01-16T07:23:32;6.90;83.80
24678;DHT22;12800;53.094;8.778;2023-01-16T07:26:02;6.90;83.50
24678;DHT22;12800;53.094;8.778;2023-01-16T07:28:29;7.00;83.60
24678;DHT22;12800;53.094;8.778;2023-01-16T07:30:56;7.00;83.60
24678;DHT22;12800;53.094;8.778;2023-01-16T07:33:23;7.00;83.40
24678;DHT22;12800;53.094;8.778;2023-01-16T07:35:49;6.90;83.20
24678;DHT22;12800;53.094;8.778;2023-01-16T07:38:14;6.90;83.30
24678;DHT22;12800;53.094;8.778;2023-01-16T07:40:40;6.90;83.20
24678;DHT22;12800;53.094;8.778;2023-01-16T07:43:06;6.90;83.30
24678;DHT22;12800;53.094;8.778;2023-01-16T07:45:32;6.90;84.10
24678;DHT22;12800;53.094;8.778;2023-01-16T07:47:57;6.90;83.30
24678;DHT22;12800;53.094;8.778;2023-01-16T07:50:23;6.90;83.20
24678;DHT22;12800;53.094;8.778;2023-01-16T07:52:48;6.90;83.30
24678;DHT22;12800;53.094;8.778;2023-01-16T07:55:14;6.90;83.20
24678;DHT22;12800;53.094;8.778;2023-01-16T07:57:42;6.90;83.30
24678;DHT22;12800;53.094;8.778;2023-01-16T08:00:09;6.90;83.00
24678;DHT22;12800;53.094;8.778;2023-01-16T08:02:36;6.90;83.00
24678;DHT22;12800;53.094;8.778;2023-01-16T08:05:03;6.80;83.00
24678;DHT22;12800;53.094;8.778;2023-01-16T08:07:28;6.80;83.10
24678;DHT22;12800;53.094;8.778;2023-01-16T08:09:54;6.80;83.10
24678;DHT22;12800;53.094;8.778;2023-01-16T08:12:19;6.80;83.00
24678;DHT22;12800;53.094;8.778;2023-01-16T08:14:45;6.80;83.10
24678;DHT22;12800;53.094;8.778;2023-01-16T08:17:11;6.80;83.20
24678;DHT22;12800;53.094;8.778;2023-01-16T08:19:36;6.80;83.20
24678;DHT22;12800;53.094;8.778;2023-01-16T08:22:02;6.80;83.30
24678;DHT22;12800;53.094;8.778;2023-01-16T08:24:28;6.80;83.10
24678;DHT22;12800;53.094;8.778;2023-01-16T08:26:54;6.80;83.30
24678;DHT22;12800;53.094;8.778;2023-01-16T08:29:20;6.80;83.10
24678;DHT22;12800;53.094;8.778;2023-01-16T08:31:46;6.80;83.10
24678;DHT22;12800;53.094;8.778;2023-01-16T08:34:12;6.90;83.30
24678;DHT22;12800;53.094;8.778;2023-01-16T08:36:37;6.90;83.20
24678;DHT22;12800;53.094;8.778;2023-01-16T08:39:03;6.90;83.10
24678;DHT22;12800;53.094;8.778;2023-01-16T08:41:29;6.90;83.20
24678;DHT22;12800;53.094;8.778;2023-01-16T08:44:13;6.90;83.30
24678;DHT22;12800;53.094;8.778;2023-01-16T08:47:03;6.90;83.10
24678;DHT22;12800;53.094;8.778;2023-01-16T08:49:49;6.80;83.10
24678;DHT22;12800;53.094;8.778;2023-01-16T08:52:34;6.90;83.20
24678;DHT22;12800;53.094;8.778;2023-01-16T08:55:00;6.90;83.40
24678;DHT22;12800;53.094;8.778;2023-01-16T08:57:26;6.90;83.30
24678;DHT22;12800;53.094;8.778;2023-01-16T08:59:56;7.00;83.20
24678;DHT22;12800;53.094;8.778;2023-01-16T09:02:23;7.00;83.20
24678;DHT22;12800;53.094;8.778;2023-01-16T09:04:48;7.00;83.20
24678;DHT22;12800;53.094;8.778;2023-01-16T09:07:15;7.00;83.20
24678;DHT22;12800;53.094;8.778;2023-01-16T09:09:41;7.10;83.10
24678;DHT22;12800;53.094;8.778;2023-01-16T09:12:09;7.10;83.10
24678;DHT22;12800;53.094;8.778;2023-01-16T09:14:54;7.10;82.80
24678;DHT22;12800;53.094;8.778;2023-01-16T09:17:23;7.10;82.70
24678;DHT22;12800;53.094;8.778;2023-01-16T09:19:49;7.10;82.80
24678;DHT22;12800;53.094;8.778;2023-01-16T09:22:15;7.20;82.80
24678;DHT22;12800;53.094;8.778;2023-01-16T09:24:40;7.20;82.80
24678;DHT22;12800;53.094;8.778;2023-01-16T09:27:06;7.20;82.60
24678;DHT22;12800;53.094;8.778;2023-01-16T09:29:32;7.20;82.50
24678;DHT22;12800;53.094;8.778;2023-01-16T09:31:58;7.20;82.70
24678;DHT22;12800;53.094;8.778;2023-01-16T09:34:24;7.20;82.50
24678;DHT22;12800;53.094;8.778;2023-01-16T09:36:50;7.30;82.50
24678;DHT22;12800;53.094;8.778;2023-01-16T09:39:17;7.30;82.30
24678;DHT22;12800;53.094;8.778;2023-01-16T09:44:50;7.30;82.40
24678;DHT22;12800;53.094;8.778;2023-01-16T09:47:22;7.30;82.40
24678;DHT22;12800;53.094;8.778;2023-01-16T09:49:53;7.40;82.50
24678;DHT22;12800;53.094;8.778;2023-01-16T09:52:25;7.40;83.20
24678;DHT22;12800;53.094;8.778;2023-01-16T09:55:38;7.40;82.20
24678;DHT22;12800;53.094;8.778;2023-01-16T09:58:23;7.50;82.20
24678;DHT22;12800;53.094;8.778;2023-01-16T10:01:08;7.40;82.00
24678;DHT22;12800;53.094;8.778;2023-01-16T10:03:34;7.50;82.10
24678;DHT22;12800;53.094;8.778;2023-01-16T10:06:27;7.50;82.30
24678;DHT22;12800;53.094;8.778;2023-01-16T10:12:12;7.50;82.00
24678;DHT22;12800;53.094;8.778;2023-01-16T10:17:47;7.60;82.00
24678;DHT22;12800;53.094;8.778;2023-01-16T10:26:29;7.60;81.90
24678;DHT22;12800;53.094;8.778;2023-01-16T10:31:35;7.60;81.70
24678;DHT22;12800;53.094;8.778;2023-01-16T10:34:10;7.60;81.60
24678;DHT22;12800;53.094;8.778;2023-01-16T10:36:42;7.60;81.70
24678;DHT22;12800;53.094;8.778;2023-01-16T10:39:11;7.60;81.80
24678;DHT22;12800;53.094;8.778;2023-01-16T10:41:46;7.60;81.70
24678;DHT22;12800;53.094;8.778;2023-01-16T10:47:48;7.70;81.50
24678;DHT22;12800;53.094;8.778;2023-01-16T10:50:33;7.80;81.30
24678;DHT22;12800;53.094;8.778;2023-01-16T10:53:00;7.80;81.00
24678;DHT22;12800;53.094;8.778;2023-01-16T10:55:25;7.80;81.10
24678;DHT22;12800;53.094;8.778;2023-01-16T10:57:54;7.90;80.90
24678;DHT22;12800;53.094;8.778;2023-01-16T11:00:23;7.90;81.00
24678;DHT22;12800;53.094;8.778;2023-01-16T11:02:57;7.90;80.90
24678;DHT22;12800;53.094;8.778;2023-01-16T11:05:34;8.00;80.70
24678;DHT22;12800;53.094;8.778;2023-01-16T11:08:11;8.00;80.40
24678;DHT22;12800;53.094;8.778;2023-01-16T11:10:38;8.00;80.30
24678;DHT22;12800;53.094;8.778;2023-01-16T11:13:05;8.00;80.30
24678;DHT22;12800;53.094;8.778;2023-01-16T11:16:26;8.00;80.20
24678;DHT22;12800;53.094;8.778;2023-01-16T11:19:21;8.00;80.20
24678;DHT22;12800;53.094;8.778;2023-01-16T11:22:00;8.00;79.90
24678;DHT22;12800;53.094;8.778;2023-01-16T11:24:39;8.00;80.00
24678;DHT22;12800;53.094;8.778;2023-01-16T11:27:08;8.00;80.10
24678;DHT22;12800;53.094;8.778;2023-01-16T11:29:38;8.00;80.20
24678;DHT22;12800;53.094;8.778;2023-01-16T11:32:08;8.00;80.30
24678;DHT22;12800;53.094;8.778;2023-01-16T11:34:36;7.90;80.30
24678;DHT22;12800;53.094;8.778;2023-01-16T11:37:05;7.90;80.50
24678;DHT22;12800;53.094;8.778;2023-01-16T11:39:33;7.80;80.60
24678;DHT22;12800;53.094;8.778;2023-01-16T11:42:11;7.80;80.80
24678;DHT22;12800;53.094;8.778;2023-01-16T11:44:58;7.80;81.00
24678;DHT22;12800;53.094;8.778;2023-01-16T11:47:49;7.70;81.00
24678;DHT22;12800;53.094;8.778;2023-01-16T11:50:32;7.70;81.10
24678;DHT22;12800;53.094;8.778;2023-01-16T11:52:58;7.70;81.10
24678;DHT22;12800;53.094;8.778;2023-01-16T11:55:36;7.70;81.20
24678;DHT22;12800;53.094;8.778;2023-01-16T11:58:14;7.70;81.20
24678;DHT22;12800;53.094;8.778;2023-01-16T12:04:24;7.70;81.30
24678;DHT22;12800;53.094;8.778;2023-01-16T12:07:17;7.70;81.30
24678;DHT22;12800;53.094;8.778;2023-01-16T12:10:09;7.70;81.30
24678;DHT22;12800;53.094;8.778;2023-01-16T12:13:03;7.60;81.20
24678;DHT22;12800;53.094;8.778;2023-01-16T12:16:03;7.60;81.60
24678;DHT22;12800;53.094;8.778;2023-01-16T12:21:26;7.60;81.90
24678;DHT22;12800;53.094;8.778;2023-01-16T12:33:35;7.60;82.40
24678;DHT22;12800;53.094;8.778;2023-01-16T12:50:29;7.60;83.40
24678;DHT22;12800;53.094;8.778;2023-01-16T12:53:12;7.70;83.60
24678;DHT22;12800;53.094;8.778;2023-01-16T12:55:54;7.70;83.60
24678;DHT22;12800;53.094;8.778;2023-01-16T12:58:27;7.70;83.80
24678;DHT22;12800;53.094;8.778;2023-01-16T13:01:25;7.80;84.70
24678;DHT22;12800;53.094;8.778;2023-01-16T13:04:02;7.90;83.80
24678;DHT22;12800;53.094;8.778;2023-01-16T13:06:36;7.90;84.00
24678;DHT22;12800;53.094;8.778;2023-01-16T13:09:04;7.90;83.80
24678;DHT22;12800;53.094;8.778;2023-01-16T13:11:57;7.90;83.70
24678;DHT22;12800;53.094;8.778;2023-01-16T13:14:45;7.90;84.50
24678;DHT22;12800;53.094;8.778;2023-01-16T13:17:17;7.90;83.80
24678;DHT22;12800;53.094;8.778;2023-01-16T13:19:45;7.90;83.60
24678;DHT22;12800;53.094;8.778;2023-01-16T13:22:27;7.90;83.50
24678;DHT22;12800;53.094;8.778;2023-01-16T13:25:02;7.90;83.50
24678;DHT22;12800;53.094;8.778;2023-01-16T13:27:42;7.90;83.40
24678;DHT22;12800;53.094;8.778;2023-01-16T13:30:18;7.90;83.20
24678;DHT22;12800;53.094;8.778;2023-01-16T13:32:50;7.90;83.10
24678;DHT22;12800;53.094;8.778;2023-01-16T13:35:22;7.90;83.30
24678;DHT22;12800;53.094;8.778;2023-01-16T13:43:26;8.00;82.80
24678;DHT22;12800;53.094;8.778;2023-01-16T13:46:13;8.00;82.50
24678;DHT22;12800;53.094;8.778;2023-01-16T13:48:39;8.10;82.50
24678;DHT22;12800;53.094;8.778;2023-01-16T13:51:15;8.10;82.40
24678;DHT22;12800;53.094;8.778;2023-01-16T13:53:45;8.10;82.30
24678;DHT22;12800;53.094;8.778;2023-01-16T13:56:21;8.10;82.10
24678;DHT22;12800;53.094;8.778;2023-01-16T14:01:34;8.00;82.00
24678;DHT22;12800;53.094;8.778;2023-01-16T14:06:57;8.00;82.00
24678;DHT22;12800;53.094;8.778;2023-01-16T14:12:40;7.90;82.10
24678;DHT22;12800;53.094;8.778;2023-01-16T14:23:16;7.80;83.20
24678;DHT22;12800;53.094;8.778;2023-01-16T14:26:01;7.80;82.50
24678;DHT22;12800;53.094;8.778;2023-01-16T14:28:27;7.70;82.50
24678;DHT22;12800;53.094;8.778;2023-01-16T14:30:54;7.70;82.60
24678;DHT22;12800;53.094;8.778;2023-01-16T14:33:20;7.70;82.80
24678;DHT22;12800;53.094;8.778;2023-01-16T14:35:51;7.70;83.00
24678;DHT22;12800;53.094;8.778;2023-01-16T14:38:21;7.70;83.10
24678;DHT22;12800;53.094;8.778;2023-01-16T14:40:57;7.60;83.00
24678;DHT22;12800;53.094;8.778;2023-01-16T14:46:52;7.60;83.30
24678;DHT22;12800;53.094;8.778;2023-01-16T14:58:07;7.60;83.70
24678;DHT22;12800;53.094;8.778;2023-01-16T15:00:35;7.50;83.60
24678;DHT22;12800;53.094;8.778;2023-01-16T15:03:09;7.50;83.70
24678;DHT22;12800;53.094;8.778;2023-01-16T15:08:35;7.60;83.90
24678;DHT22;12800;53.094;8.778;2023-01-16T15:11:10;7.50;83.50
24678;DHT22;12800;53.094;8.778;2023-01-16T15:22:54;7.40;83.70
24678;DHT22;12800;53.094;8.778;2023-01-16T15:30:46;7.30;83.90
24678;DHT22;12800;53.094;8.778;2023-01-16T15:33:29;7.30;83.90
24678;DHT22;12800;53.094;8.778;2023-01-16T15:39:23;7.30;84.10
24678;DHT22;12800;53.094;8.778;2023-01-16T15:42:09;7.30;84.10
24678;DHT22;12800;53.094;8.778;2023-01-16T15:45:01;7.30;84.10
24678;DHT22;12800;53.094;8.778;2023-01-16T15:48:51;7.30;84.00
24678;DHT22;12800;53.094;8.778;2023-01-16T15:51:20;7.20;83.90
24678;DHT22;12800;53.094;8.778;2023-01-16T15:53:48;7.30;83.90
24678;DHT22;12800;53.094;8.778;2023-01-16T15:56:22;7.30;83.90
24678;DHT22;12800;53.094;8.778;2023-01-16T15:58:50;7.30;84.10
24678;DHT22;12800;53.094;8.778;2023-01-16T16:01:28;7.30;84.00
24678;DHT22;12800;53.094;8.778;2023-01-16T16:03:54;7.20;83.90
24678;DHT22;12800;53.094;8.778;2023-01-16T16:06:21;7.20;84.00
24678;DHT22;12800;53.094;8.778;2023-01-16T16:08:51;7.20;84.20
24678;DHT22;12800;53.094;8.778;2023-01-16T16:11:21;7.20;84.10
24678;DHT22;12800;53.094;8.778;2023-01-16T16:14:05;7.20;84.30
24678;DHT22;12800;53.094;8.778;2023-01-16T16:17:05;7.20;84.10
24678;DHT22;12800;53.094;8.778;2023-01-16T16:19:49;7.20;83.80
24678;DHT22;12800;53.094;8.778;2023-01-16T16:22:21;7.20;83.70
24678;DHT22;12800;53.094;8.778;2023-01-16T16:27:55;7.30;84.40
24678;DHT22;12800;53.094;8.778;2023-01-16T16:30:28;7.30;83.60
24678;DHT22;12800;53.094;8.778;2023-01-16T16:32:55;7.30;83.30
24678;DHT22;12800;53.094;8.778;2023-01-16T16:35:33;7.30;83.10
24678;DHT22;12800;53.094;8.778;2023-01-16T16:38:00;7.30;83.10
24678;DHT22;12800;53.094;8.778;2023-01-16T16:40:27;7.30;83.10
24678;DHT22;12800;53.094;8.778;2023-01-16T16:42:53;7.30;83.10
24678;DHT22;12800;53.094;8.778;2023-01-16T16:50:45;7.40;82.70
24678;DHT22;12800;53.094;8.778;2023-01-16T16:53:16;7.40;82.50
24678;DHT22;12800;53.094;8.778;2023-01-16T16:55:51;7.40;82.60
24678;DHT22;12800;53.094;8.778;2023-01-16T16:58:23;7.40;82.70
24678;DHT22;12800;53.094;8.778;2023-01-16T17:00:49;7.40;82.50
24678;DHT22;12800;53.094;8.778;2023-01-16T17:03:22;7.50;82.30
24678;DHT22;12800;53.094;8.778;2023-01-16T17:05:49;7.50;82.40
24678;DHT22;12800;53.094;8.778;2023-01-16T17:08:22;7.50;82.30
24678;DHT22;12800;53.094;8.778;2023-01-16T17:10:49;7.50;83.00
24678;DHT22;12800;53.094;8.778;2023-01-16T17:13:17;7.40;82.00
24678;DHT22;12800;53.094;8.778;2023-01-16T17:15:44;7.40;82.10
24678;DHT22;12800;53.094;8.778;2023-01-16T17:18:11;7.40;82.40
24678;DHT22;12800;53.094;8.778;2023-01-16T17:20:37;7.40;83.10
24678;DHT22;12800;53.094;8.778;2023-01-16T17:23:12;7.40;82.30
24678;DHT22;12800;53.094;8.778;2023-01-16T17:25:39;7.40;82.20
24678;DHT22;12800;53.094;8.778;2023-01-16T17:28:06;7.40;82.00
24678;DHT22;12800;53.094;8.778;2023-01-16T17:30:31;7.40;82.20
24678;DHT22;12800;53.094;8.778;2023-01-16T17:33:00;7.40;81.90
24678;DHT22;12800;53.094;8.778;2023-01-16T17:35:33;7.40;81.70
24678;DHT22;12800;53.094;8.778;2023-01-16T17:37:59;7.30;81.60
24678;DHT22;12800;53.094;8.778;2023-01-16T17:40:24;7.40;81.90
24678;DHT22;12800;53.094;8.778;2023-01-16T17:42:50;7.40;82.10
24678;DHT22;12800;53.094;8.778;2023-01-16T17:45:43;7.40;81.70
24678;DHT22;12800;53.094;8.778;2023-01-16T17:48:22;7.30;81.70
24678;DHT22;12800;53.094;8.778;2023-01-16T17:50:48;7.30;82.00
24678;DHT22;12800;53.094;8.778;2023-01-16T17:53:16;7.30;81.90
24678;DHT22;12800;53.094;8.778;2023-01-16T17:55:47;7.30;83.00
24678;DHT22;12800;53.094;8.778;2023-01-16T17:58:37;7.30;82.60
24678;DHT22;12800;53.094;8.778;2023-01-16T18:01:23;7.30;82.90
24678;DHT22;12800;53.094;8.778;2023-01-16T18:03:55;7.30;83.00
24678;DHT22;12800;53.094;8.778;2023-01-16T18:06:46;7.20;83.10
24678;DHT22;12800;53.094;8.778;2023-01-16T18:09:13;7.20;83.20
24678;DHT22;12800;53.094;8.778;2023-01-16T18:11:41;7.20;83.10
24678;DHT22;12800;53.094;8.778;2023-01-16T18:14:26;7.20;83.40
24678;DHT22;12800;53.094;8.778;2023-01-16T18:17:12;7.10;83.50
24678;DHT22;12800;53.094;8.778;2023-01-16T18:19:53;7.10;83.50
24678;DHT22;12800;53.094;8.778;2023-01-16T18:22:21;7.10;83.70
24678;DHT22;12800;53.094;8.778;2023-01-16T18:24:47;7.10;83.90
24678;DHT22;12800;53.094;8.778;2023-01-16T18:27:15;7.00;83.80
24678;DHT22;12800;53.094;8.778;2023-01-16T18:29:42;7.00;83.70
24678;DHT22;12800;53.094;8.778;2023-01-16T18:32:08;7.00;83.60
24678;DHT22;12800;53.094;8.778;2023-01-16T18:34:58;6.90;83.50
24678;DHT22;12800;53.094;8.778;2023-01-16T18:37:31;6.90;83.60
24678;DHT22;12800;53.094;8.778;2023-01-16T18:39:56;6.80;83.60
24678;DHT22;12800;53.094;8.778;2023-01-16T18:42:41;6.80;83.80
24678;DHT22;12800;53.094;8.778;2023-01-16T18:45:25;6.80;83.70